createdAt,value
2018-08-17T00:01:21.406Z,13.80
2018-08-17T00:03:49.211Z,14.50
2018-08-17T00:06:17.021Z,13.73
2018-08-17T00:08:44.882Z,14.10
2018-08-17T00:11:12.673Z,12.47
2018-08-17T00:13:40.607Z,12.23
2018-08-17T00:16:08.387Z,12.37
2018-08-17T00:18:36.232Z,11.90
2018-08-17T00:21:04.099Z,12.93
2018-08-17T00:23:32.176Z,12.13
2018-08-17T00:25:59.990Z,11.90
2018-08-17T00:28:27.789Z,11.47
2018-08-17T00:30:55.655Z,13.33
2018-08-17T00:33:23.442Z,13.30
2018-08-17T00:35:51.303Z,12.10
2018-08-17T00:38:19.103Z,12.27
2018-08-17T00:40:46.954Z,12.70
2018-08-17T00:43:14.815Z,13.07
2018-08-17T00:45:42.622Z,12.70
2018-08-17T00:48:10.838Z,12.43
2018-08-17T00:50:38.783Z,12.37
2018-08-17T00:53:06.750Z,12.17
2018-08-17T00:55:34.625Z,10.40
2018-08-17T00:58:02.505Z,9.73
2018-08-17T01:00:30.355Z,10.87
2018-08-17T01:02:58.214Z,13.23
2018-08-17T01:05:26.130Z,12.37
2018-08-17T01:07:53.962Z,13.77
2018-08-17T01:10:21.746Z,13.43
2018-08-17T01:12:49.550Z,12.97
2018-08-17T01:15:17.327Z,13.47
2018-08-17T01:17:45.257Z,13.20
2018-08-17T01:20:13.710Z,13.27
2018-08-17T01:22:42.033Z,13.07
2018-08-17T01:25:09.903Z,13.07
2018-08-17T01:27:37.706Z,13.00
2018-08-17T01:30:05.838Z,12.90
2018-08-17T01:32:33.622Z,13.63
2018-08-17T01:35:01.405Z,13.10
2018-08-17T01:37:29.265Z,12.50
2018-08-17T01:39:57.106Z,14.37
2018-08-17T01:42:25.072Z,13.73
2018-08-17T01:44:52.949Z,13.90
2018-08-17T01:47:20.808Z,13.97
2018-08-17T01:49:48.597Z,14.10
2018-08-17T01:52:16.448Z,14.07
2018-08-17T01:54:44.337Z,14.37
2018-08-17T01:57:12.179Z,14.70
2018-08-17T01:59:40.072Z,14.00
2018-08-17T02:02:07.910Z,14.00
2018-08-17T02:04:35.764Z,13.03
2018-08-17T02:07:04.051Z,13.00
2018-08-17T02:09:31.826Z,13.13
2018-08-17T02:11:59.768Z,13.20
2018-08-17T02:14:27.623Z,14.10
2018-08-17T02:16:55.458Z,12.33
2018-08-17T02:19:23.312Z,12.60
2018-08-17T02:21:51.239Z,12.97
2018-08-17T02:24:19.033Z,13.17
2018-08-17T02:26:46.810Z,12.60
2018-08-17T02:29:14.700Z,13.20
2018-08-17T02:31:42.548Z,13.27
2018-08-17T02:34:10.435Z,13.70
2018-08-17T02:36:38.211Z,13.50
2018-08-17T02:39:06.494Z,12.53
2018-08-17T02:41:34.307Z,13.23
2018-08-17T02:44:02.123Z,14.20
2018-08-17T02:46:29.946Z,14.13
2018-08-17T02:48:57.831Z,13.03
2018-08-17T02:51:25.638Z,12.53
2018-08-17T02:53:53.427Z,12.30
2018-08-17T02:56:21.307Z,12.87
2018-08-17T02:58:49.143Z,12.00
2018-08-17T03:01:16.919Z,11.43
2018-08-17T03:03:44.726Z,11.47
2018-08-17T03:06:12.505Z,10.73
2018-08-17T03:08:40.408Z,10.73
2018-08-17T03:11:08.264Z,11.47
2018-08-17T03:13:36.172Z,10.57
2018-08-17T03:16:03.983Z,10.00
2018-08-17T03:18:31.776Z,11.03
2018-08-17T03:20:59.895Z,11.70
2018-08-17T03:23:27.732Z,12.03
2018-08-17T03:25:55.615Z,11.80
2018-08-17T03:28:23.468Z,11.53
2018-08-17T03:30:51.303Z,12.27
2018-08-17T03:33:19.171Z,11.07
2018-08-17T03:35:46.962Z,12.00
2018-08-17T03:38:14.956Z,11.90
2018-08-17T03:40:42.711Z,11.60
2018-08-17T03:43:10.583Z,11.33
2018-08-17T03:45:38.470Z,10.80
2018-08-17T03:48:06.294Z,10.07
2018-08-17T03:50:34.164Z,10.13
2018-08-17T03:53:02.031Z,10.57
2018-08-17T03:55:29.955Z,10.63
2018-08-17T03:57:57.800Z,11.53
2018-08-17T04:00:25.710Z,12.10
2018-08-17T04:02:53.638Z,12.40
2018-08-17T04:05:21.443Z,11.83
2018-08-17T04:07:49.304Z,11.53
2018-08-17T04:10:17.091Z,11.40
2018-08-17T04:12:44.994Z,11.77
2018-08-17T04:15:12.785Z,10.90
2018-08-17T04:17:40.574Z,12.10
2018-08-17T04:20:08.706Z,11.47
2018-08-17T04:22:36.479Z,10.53
2018-08-17T04:25:04.314Z,11.70
2018-08-17T04:27:32.127Z,10.90
2018-08-17T04:30:00.128Z,11.10
2018-08-17T04:32:27.973Z,10.40
2018-08-17T04:34:55.816Z,9.83
2018-08-17T04:37:23.663Z,9.93
2018-08-17T04:39:51.497Z,9.77
2018-08-17T04:42:19.355Z,10.30
2018-08-17T04:44:47.208Z,10.53
2018-08-17T04:47:15.076Z,11.40
2018-08-17T04:49:42.900Z,11.23
2018-08-17T04:52:10.860Z,10.13
2018-08-17T04:54:38.679Z,10.33
2018-08-17T04:57:06.627Z,10.50
2018-08-17T04:59:34.475Z,9.97
2018-08-17T05:02:02.274Z,10.00
2018-08-17T05:04:30.119Z,9.60
2018-08-17T05:06:57.918Z,9.10
2018-08-17T05:09:25.692Z,7.73
2018-08-17T05:11:53.539Z,6.37
2018-08-17T05:14:21.312Z,7.60
2018-08-17T05:16:49.114Z,7.40
2018-08-17T05:19:16.985Z,45.43
2018-08-17T05:21:44.896Z,10.07
2018-08-17T05:24:13.015Z,6.40
2018-08-17T05:26:40.911Z,6.13
2018-08-17T05:29:08.815Z,6.40
2018-08-17T05:31:36.618Z,6.47
2018-08-17T05:34:04.454Z,6.20
2018-08-17T05:36:32.383Z,6.27
2018-08-17T05:39:00.305Z,6.13
2018-08-17T05:41:28.098Z,6.37
2018-08-17T05:43:55.970Z,5.73
2018-08-17T05:46:23.971Z,5.90
2018-08-17T05:48:51.819Z,5.60
2018-08-17T05:51:20.873Z,5.30
2018-08-17T05:53:49.876Z,4.70
2018-08-17T05:56:17.822Z,4.70
2018-08-17T05:58:46.010Z,4.73
2018-08-17T06:01:13.836Z,5.50
2018-08-17T06:03:41.708Z,4.90
2018-08-17T06:06:10.012Z,4.57
2018-08-17T06:08:37.823Z,4.27
2018-08-17T06:11:05.709Z,4.97
2018-08-17T06:13:33.549Z,4.80
2018-08-17T06:16:01.335Z,4.60
2018-08-17T06:18:29.143Z,4.90
2018-08-17T06:20:57.133Z,6.33
2018-08-17T06:23:24.955Z,5.67
2018-08-17T06:25:52.811Z,5.27
2018-08-17T06:28:20.654Z,5.90
2018-08-17T06:30:48.504Z,5.80
2018-08-17T06:33:16.292Z,5.20
2018-08-17T06:35:44.114Z,5.63
2018-08-17T06:38:12.012Z,6.03
2018-08-17T06:40:39.851Z,5.63
2018-08-17T06:43:07.743Z,5.10
2018-08-17T06:45:35.566Z,5.40
2018-08-17T06:48:03.404Z,5.73
2018-08-17T06:50:31.267Z,5.10
2018-08-17T06:52:59.052Z,4.90
2018-08-17T06:55:26.939Z,4.87
2018-08-17T06:57:54.712Z,5.67
2018-08-17T07:00:22.566Z,5.00
2018-08-17T07:02:50.405Z,5.17
2018-08-17T07:05:18.239Z,5.33
2018-08-17T07:07:46.094Z,5.00
2018-08-17T07:10:14.590Z,5.53
2018-08-17T07:12:43.075Z,5.27
2018-08-17T07:15:11.383Z,5.23
2018-08-17T07:17:40.541Z,5.30
2018-08-17T07:20:09.794Z,4.73
2018-08-17T07:22:37.648Z,5.37
2018-08-17T07:25:05.575Z,5.30
2018-08-17T07:27:33.364Z,4.77
2018-08-17T07:30:01.460Z,5.10
2018-08-17T07:32:30.068Z,5.50
2018-08-17T07:34:57.956Z,4.70
2018-08-17T07:37:25.784Z,4.80
2018-08-17T07:39:53.636Z,4.50
2018-08-17T07:42:21.469Z,5.07
2018-08-17T07:44:49.328Z,4.87
2018-08-17T07:47:17.199Z,5.07
2018-08-17T07:49:44.996Z,4.90
2018-08-17T07:52:12.835Z,4.50
2018-08-17T07:54:40.631Z,4.70
2018-08-17T07:57:08.451Z,4.70
2018-08-17T07:59:36.313Z,4.43
2018-08-17T08:02:04.197Z,4.80
2018-08-17T08:04:32.028Z,4.40
2018-08-17T08:06:59.814Z,4.30
2018-08-17T08:09:27.775Z,4.80
2018-08-17T08:11:55.607Z,4.30
2018-08-17T08:14:23.391Z,4.30
2018-08-17T08:16:51.280Z,4.87
2018-08-17T08:19:19.051Z,4.73
2018-08-17T08:21:50.371Z,3.93
2018-08-17T08:24:18.991Z,5.10
2018-08-17T08:26:47.035Z,4.53
2018-08-17T08:29:15.177Z,4.50
2018-08-17T08:31:43.071Z,4.10
2018-08-17T08:34:10.904Z,4.87
2018-08-17T08:36:38.837Z,4.63
2018-08-17T08:39:07.629Z,4.80
2018-08-17T08:41:35.537Z,5.23
2018-08-17T08:44:03.392Z,4.93
2018-08-17T08:46:31.236Z,5.13
2018-08-17T08:48:59.209Z,4.33
2018-08-17T08:51:27.098Z,4.90
2018-08-17T08:53:54.963Z,4.40
2018-08-17T08:56:22.900Z,5.27
2018-08-17T08:58:50.694Z,5.00
2018-08-17T09:01:18.619Z,4.80
2018-08-17T09:03:46.485Z,4.83
2018-08-17T09:06:14.278Z,4.97
2018-08-17T09:08:42.127Z,5.03
2018-08-17T09:11:09.931Z,4.23
2018-08-17T09:13:37.802Z,4.50
2018-08-17T09:16:05.618Z,5.13
2018-08-17T09:18:33.420Z,4.77
2018-08-17T09:21:01.249Z,4.93
2018-08-17T09:23:29.064Z,5.03
2018-08-17T09:25:56.904Z,4.83
2018-08-17T09:28:24.887Z,4.90
2018-08-17T09:30:52.759Z,4.77
2018-08-17T09:33:20.582Z,4.97
2018-08-17T09:35:48.375Z,4.87
2018-08-17T09:38:16.169Z,5.47
2018-08-17T09:40:44.020Z,4.97
2018-08-17T09:43:11.883Z,5.27
2018-08-17T09:45:39.699Z,7.30
2018-08-17T09:48:07.574Z,5.43
2018-08-17T09:50:36.772Z,5.87
2018-08-17T09:53:04.796Z,6.03
2018-08-17T09:55:32.651Z,5.87
2018-08-17T09:58:00.437Z,5.60
2018-08-17T10:00:33.582Z,4.53
2018-08-17T10:03:06.635Z,4.80
2018-08-17T10:05:37.691Z,5.03
2018-08-17T10:08:11.168Z,5.30
2018-08-17T10:10:39.148Z,4.90
2018-08-17T10:13:06.952Z,4.93
2018-08-17T10:15:34.805Z,4.97
2018-08-17T10:18:02.637Z,4.83
2018-08-17T10:20:30.446Z,5.20
2018-08-17T10:22:58.255Z,4.80
2018-08-17T10:25:26.507Z,4.20
2018-08-17T10:27:55.775Z,4.67
2018-08-17T10:30:23.932Z,5.13
2018-08-17T10:32:54.585Z,4.50
2018-08-17T10:35:25.887Z,5.13
2018-08-17T10:37:55.492Z,4.53
2018-08-17T10:40:23.928Z,4.53
2018-08-17T10:42:51.743Z,4.27
2018-08-17T10:45:20.399Z,4.87
2018-08-17T10:47:49.070Z,4.70
2018-08-17T10:50:20.142Z,4.43
2018-08-17T10:52:50.212Z,5.13
2018-08-17T10:55:18.055Z,4.47
2018-08-17T10:57:45.832Z,3.80
2018-08-17T11:00:18.147Z,4.30
2018-08-17T11:02:46.256Z,4.23
2018-08-17T11:05:15.607Z,4.43
2018-08-17T11:07:44.528Z,3.97
2018-08-17T11:10:12.359Z,4.10
2018-08-17T11:12:43.194Z,4.27
2018-08-17T11:15:11.403Z,3.97
2018-08-17T11:17:39.272Z,3.40
2018-08-17T11:20:07.100Z,3.80
2018-08-17T11:22:35.418Z,3.83
2018-08-17T11:25:05.107Z,4.20
2018-08-17T11:27:33.024Z,4.33
2018-08-17T11:30:00.919Z,4.30
2018-08-17T11:32:28.780Z,4.53
2018-08-17T11:34:56.658Z,4.80
2018-08-17T11:37:24.539Z,5.00
2018-08-17T11:40:06.831Z,4.10
2018-08-17T11:42:42.062Z,4.27
2018-08-17T11:45:20.003Z,4.17
2018-08-17T11:47:48.343Z,4.40
2018-08-17T11:50:17.192Z,4.47
2018-08-17T11:52:49.282Z,4.30
2018-08-17T11:55:17.596Z,4.50
2018-08-17T11:57:45.521Z,4.23
2018-08-17T12:00:13.367Z,4.43
2018-08-17T12:02:41.311Z,4.80
2018-08-17T12:05:09.844Z,4.03
2018-08-17T12:07:37.693Z,3.73
2018-08-17T12:10:05.839Z,4.17
2018-08-17T12:12:34.846Z,4.13
2018-08-17T12:15:03.277Z,4.33
2018-08-17T12:17:31.294Z,4.23
2018-08-17T12:19:59.142Z,3.80
2018-08-17T12:22:27.332Z,3.80
2018-08-17T12:24:55.181Z,3.50
2018-08-17T12:27:23.051Z,3.70
2018-08-17T12:29:50.823Z,4.00
2018-08-17T12:32:18.801Z,4.10
2018-08-17T12:34:46.570Z,4.20
2018-08-17T12:37:14.379Z,3.93
2018-08-17T12:39:42.178Z,3.80
2018-08-17T12:42:09.955Z,4.03
2018-08-17T12:44:37.847Z,4.00
2018-08-17T12:47:05.648Z,4.10
2018-08-17T12:49:33.507Z,4.37
2018-08-17T12:52:01.480Z,3.93
2018-08-17T12:54:32.385Z,4.20
2018-08-17T12:57:01.020Z,3.80
2018-08-17T12:59:29.103Z,3.40
2018-08-17T13:01:57.291Z,3.97
2018-08-17T13:04:25.925Z,4.00
2018-08-17T13:06:53.735Z,3.90
2018-08-17T13:09:21.887Z,3.93
2018-08-17T13:11:54.784Z,3.70
2018-08-17T13:14:22.577Z,3.63
2018-08-17T13:16:50.715Z,4.03
2018-08-17T13:19:18.554Z,3.60
2018-08-17T13:21:46.327Z,4.67
2018-08-17T13:24:14.119Z,3.80
2018-08-17T13:26:41.921Z,4.13
2018-08-17T13:29:09.818Z,4.00
2018-08-17T13:31:37.721Z,3.90
2018-08-17T13:34:05.516Z,3.80
2018-08-17T13:36:33.367Z,3.67
2018-08-17T13:39:01.209Z,4.30
2018-08-17T13:41:29.050Z,4.27
2018-08-17T13:43:57.002Z,3.77
2018-08-17T13:46:24.803Z,3.70
2018-08-17T13:48:52.643Z,4.50
2018-08-17T13:51:20.499Z,4.60
2018-08-17T13:53:48.399Z,3.87
2018-08-17T13:56:16.308Z,4.30
2018-08-17T13:58:44.135Z,4.20
2018-08-17T14:01:11.915Z,3.97
2018-08-17T14:03:39.736Z,4.30
2018-08-17T14:06:07.493Z,4.20
2018-08-17T14:08:35.279Z,3.90
2018-08-17T14:11:03.152Z,4.03
2018-08-17T14:13:30.931Z,3.87
2018-08-17T14:15:58.702Z,4.07
2018-08-17T14:18:26.602Z,3.80
2018-08-17T14:20:54.372Z,3.93
2018-08-17T14:23:22.168Z,3.73
2018-08-17T14:25:50.002Z,3.80
2018-08-17T14:28:17.808Z,4.67
2018-08-17T14:30:45.701Z,4.83
2018-08-17T14:33:13.476Z,4.30
2018-08-17T14:35:41.325Z,4.37
2018-08-17T14:38:09.190Z,4.20
2018-08-17T14:40:36.959Z,4.53
2018-08-17T14:43:04.745Z,4.77
2018-08-17T14:45:32.595Z,4.33
2018-08-17T14:48:00.410Z,4.00
2018-08-17T14:50:28.175Z,4.07
2018-08-17T14:52:56.070Z,4.80
2018-08-17T14:55:23.915Z,4.13
2018-08-17T14:57:51.731Z,3.97
2018-08-17T15:00:19.566Z,3.23
2018-08-17T15:02:47.366Z,2.67
2018-08-17T15:05:15.896Z,2.57
2018-08-17T15:07:43.780Z,2.97
2018-08-17T15:10:13.151Z,2.80
2018-08-17T15:12:41.919Z,2.53
2018-08-17T15:15:10.449Z,2.60
2018-08-17T15:17:38.308Z,2.50
2018-08-17T15:20:06.606Z,2.60
2018-08-17T15:22:34.438Z,2.70
2018-08-17T15:25:02.250Z,8.50
2018-08-17T15:27:30.213Z,4.07
2018-08-17T15:29:57.982Z,3.50
2018-08-17T15:32:25.811Z,3.67
2018-08-17T15:34:53.616Z,4.00
2018-08-17T15:37:21.395Z,4.70
2018-08-17T15:39:49.195Z,5.50
2018-08-17T15:42:17.055Z,5.17
2018-08-17T15:44:44.913Z,16.07
2018-08-17T15:47:12.766Z,9.30
2018-08-17T15:49:40.691Z,5.97
2018-08-17T15:52:09.538Z,5.57
2018-08-17T15:54:37.395Z,6.27
2018-08-17T15:57:05.206Z,5.97
2018-08-17T15:59:45.424Z,6.03
2018-08-17T16:02:13.428Z,5.90
2018-08-17T16:04:41.218Z,6.93
2018-08-17T16:07:09.082Z,6.93
2018-08-17T16:09:37.006Z,7.17
2018-08-17T16:12:04.911Z,8.03
2018-08-17T16:14:32.755Z,6.97
2018-08-17T16:17:00.530Z,7.17
2018-08-17T16:19:28.323Z,6.93
2018-08-17T16:21:56.224Z,6.47
2018-08-17T16:24:24.219Z,7.73
2018-08-17T16:26:52.377Z,7.17
2018-08-17T16:29:20.190Z,7.43
2018-08-17T16:31:48.162Z,8.30
2018-08-17T16:34:15.939Z,8.97
2018-08-17T16:36:43.899Z,8.53
2018-08-17T16:39:14.177Z,9.03
2018-08-17T16:41:42.234Z,9.10
2018-08-17T16:44:10.056Z,8.90
2018-08-17T16:46:38.404Z,8.70
2018-08-17T16:49:06.546Z,8.73
2018-08-17T16:51:34.375Z,9.03
2018-08-17T16:54:02.303Z,9.60
2018-08-17T16:56:30.173Z,9.27
2018-08-17T16:58:58.105Z,9.00
2018-08-17T17:01:25.858Z,10.03
2018-08-17T17:03:53.712Z,10.13
2018-08-17T17:06:21.523Z,9.97
2018-08-17T17:08:49.310Z,10.57
2018-08-17T17:11:17.138Z,10.40
2018-08-17T17:13:44.938Z,10.33
2018-08-17T17:16:12.868Z,10.20
2018-08-17T17:18:40.676Z,11.43
2018-08-17T17:21:08.511Z,9.10
2018-08-17T17:23:44.675Z,10.20
2018-08-17T17:26:12.810Z,9.30
2018-08-17T17:28:40.607Z,40.77
2018-08-17T17:31:08.514Z,12.87
2018-08-17T17:33:36.303Z,15.27
2018-08-17T17:36:04.204Z,12.50
2018-08-17T17:38:31.984Z,10.60
2018-08-17T17:41:00.655Z,11.03
2018-08-17T17:43:28.512Z,10.60
2018-08-17T17:45:56.381Z,11.37
2018-08-17T17:48:24.258Z,9.77
2018-08-17T17:50:52.058Z,9.63
2018-08-17T17:53:19.940Z,12.00
2018-08-17T17:55:48.780Z,9.33
2018-08-17T17:58:16.666Z,9.23
2018-08-17T18:00:55.298Z,7.57
2018-08-17T18:03:23.261Z,9.20
2018-08-17T18:05:51.070Z,10.33
2018-08-17T18:08:19.332Z,11.20
2018-08-17T18:10:47.414Z,11.47
2018-08-17T18:13:15.260Z,11.43
2018-08-17T18:15:43.144Z,13.30
2018-08-17T18:18:11.051Z,18.30
2018-08-17T18:20:38.856Z,12.20
2018-08-17T18:23:06.788Z,10.50
2018-08-17T18:25:34.670Z,12.23
2018-08-17T18:28:02.608Z,12.00
2018-08-17T18:30:30.511Z,11.00
2018-08-17T18:32:58.318Z,10.73
2018-08-17T18:35:26.240Z,11.63
2018-08-17T18:37:54.118Z,11.60
2018-08-17T18:40:21.958Z,11.47
2018-08-17T18:42:49.809Z,10.50
2018-08-17T18:45:17.614Z,11.43
2018-08-17T18:47:45.603Z,10.90
2018-08-17T18:50:13.375Z,11.00
2018-08-17T18:52:41.220Z,12.23
2018-08-17T18:55:09.156Z,12.57
2018-08-17T18:57:36.947Z,12.00
2018-08-17T19:00:06.607Z,12.67
2018-08-17T19:02:34.468Z,15.07
2018-08-17T19:05:02.346Z,13.77
2018-08-17T19:07:30.196Z,13.10
2018-08-17T19:09:58.041Z,12.60
2018-08-17T19:12:25.982Z,13.30
2018-08-17T19:14:53.758Z,13.80
2018-08-17T19:17:26.767Z,12.40
2018-08-17T19:19:54.594Z,14.27
2018-08-17T19:22:22.743Z,13.63
2018-08-17T19:24:52.180Z,13.17
2018-08-17T19:27:31.787Z,46.67
2018-08-17T19:29:59.564Z,14.57
2018-08-17T19:32:27.432Z,13.53
2018-08-17T19:34:55.270Z,14.50
2018-08-17T19:37:23.055Z,14.07
2018-08-17T19:39:50.916Z,14.93
2018-08-17T19:42:18.774Z,12.67
2018-08-17T19:44:46.668Z,10.17
2018-08-17T19:47:14.464Z,9.47
2018-08-17T19:49:42.279Z,9.67
2018-08-17T19:52:10.143Z,9.37
2018-08-17T19:54:37.923Z,9.53
2018-08-17T19:57:05.833Z,8.00
2018-08-17T19:59:33.752Z,8.20
2018-08-17T20:02:01.678Z,7.80
2018-08-17T20:04:30.389Z,8.87
2018-08-17T20:06:58.608Z,8.87
2018-08-17T20:09:26.437Z,8.57
2018-08-17T20:11:54.242Z,9.63
2018-08-17T20:14:22.102Z,9.97
2018-08-17T20:16:49.890Z,10.43
2018-08-17T20:19:17.823Z,9.93
2018-08-17T20:21:45.617Z,9.43
2018-08-17T20:24:13.574Z,8.60
2018-08-17T20:26:41.666Z,9.57
2018-08-17T20:29:09.163Z,8.23
2018-08-17T20:31:40.908Z,8.23
2018-08-17T20:34:08.741Z,8.80
2018-08-17T20:36:36.619Z,8.80
2018-08-17T20:39:08.379Z,8.77
2018-08-17T20:41:36.277Z,8.83
2018-08-17T20:44:04.167Z,7.73
2018-08-17T20:46:32.038Z,8.67
2018-08-17T20:48:59.907Z,8.70
2018-08-17T20:51:27.696Z,9.17
2018-08-17T20:53:59.044Z,9.20
2018-08-17T20:56:27.435Z,9.27
2018-08-17T20:58:55.420Z,9.33
2018-08-17T21:01:23.389Z,9.30
2018-08-17T21:03:51.250Z,11.50
2018-08-17T21:06:19.103Z,9.17
2018-08-17T21:08:46.866Z,9.87
2018-08-17T21:11:14.710Z,9.53
2018-08-17T21:13:42.768Z,9.93
2018-08-17T21:16:10.560Z,8.57
2018-08-17T21:18:38.456Z,8.17
2018-08-17T21:21:06.387Z,9.60
2018-08-17T21:23:34.171Z,8.73
2018-08-17T21:26:01.945Z,7.90
2018-08-17T21:28:29.834Z,8.20
2018-08-17T21:30:57.684Z,8.00
2018-08-17T21:33:25.484Z,7.13
2018-08-17T21:35:53.323Z,7.83
2018-08-17T21:38:22.323Z,8.50
2018-08-17T21:40:50.098Z,7.67
2018-08-17T21:43:17.864Z,7.80
2018-08-17T21:45:45.772Z,8.10
2018-08-17T21:48:18.878Z,8.50
2018-08-17T21:50:46.726Z,7.30
2018-08-17T21:53:14.537Z,6.77
2018-08-17T21:55:42.294Z,7.27
2018-08-17T21:58:10.223Z,10.40
2018-08-17T22:00:38.011Z,9.47
2018-08-17T22:03:08.537Z,10.03
2018-08-17T22:05:37.488Z,9.10
2018-08-17T22:08:05.311Z,9.17
2018-08-17T22:10:33.090Z,8.67
2018-08-17T22:13:00.863Z,9.60
2018-08-17T22:15:30.072Z,8.80
2018-08-17T22:17:57.850Z,8.27
2018-08-17T22:20:25.706Z,8.27
2018-08-17T22:22:53.487Z,7.93
2018-08-17T22:25:21.268Z,8.47
2018-08-17T22:27:49.380Z,8.03
2018-08-17T22:30:19.217Z,7.80
2018-08-17T22:32:47.071Z,7.53
2018-08-17T22:35:14.929Z,6.97
2018-08-17T22:37:42.836Z,8.40
2018-08-17T22:40:10.638Z,8.23
2018-08-17T22:42:38.450Z,9.00
2018-08-17T22:45:06.562Z,9.03
2018-08-17T22:47:34.412Z,9.50
2018-08-17T22:50:02.307Z,9.03
2018-08-17T22:52:31.994Z,9.30
2018-08-17T22:55:00.877Z,8.67
2018-08-17T22:57:29.467Z,7.50
2018-08-17T23:00:08.897Z,7.90
2018-08-17T23:02:36.752Z,8.23
2018-08-17T23:05:05.263Z,8.10
2018-08-17T23:07:33.135Z,8.23
2018-08-17T23:10:00.930Z,8.70
2018-08-17T23:12:28.731Z,8.67
2018-08-17T23:14:56.563Z,8.60
2018-08-17T23:17:24.388Z,10.37
2018-08-17T23:19:52.312Z,10.50
2018-08-17T23:22:20.210Z,10.83
2018-08-17T23:24:48.049Z,11.20
2018-08-17T23:27:15.892Z,10.73
2018-08-17T23:29:43.847Z,11.60
2018-08-17T23:32:11.707Z,11.97
2018-08-17T23:34:39.507Z,11.40
2018-08-17T23:37:07.290Z,12.07
2018-08-17T23:39:35.083Z,12.83
2018-08-17T23:42:02.988Z,12.43
2018-08-17T23:44:30.875Z,12.10
2018-08-17T23:46:58.672Z,12.27
2018-08-17T23:49:26.471Z,11.87
2018-08-17T23:51:54.305Z,11.77
2018-08-17T23:54:22.151Z,11.10
2018-08-17T23:56:50.091Z,11.13
2018-08-17T23:59:18.015Z,10.90
